Maersk Weymouth — VRFS9 — position and weather

sailwx.info

Track history (hours):
 
Tides and Currents Weather Stations Pressure Air Temp Water Temp Dewpoint Dewpoint Depression Visibility Wind Speed Wind Dir Waves Ship Positions

Maersk Weymouth

Last reported at 2016-May-01 09:33 UTC. Time now 2016-May-01 09:51 UTC.
Position N 26°14' W 079°55'.

Length 172 m; draft 7.5 m.

Type: Cargo ship. MMSI: 477622100.

Date/timePositionNaut miles runAvg speedWind from/ knotsBaromVisibWave heightAir tempDewpointWater temp
2016-May-01 09:33N 26°14' W 079°55'7 7.3
2016-May-01 08:33N 26°21' W 079°52'7 7.1
2016-May-01 07:33N 26°28' W 079°51'7 7.1
2016-May-01 06:33N 26°35' W 079°50'7 7.1
2016-May-01 05:33N 26°42' W 079°48'7 6.7
2016-May-01 04:33N 26°49' W 079°47'7 7.4
2016-May-01 03:33N 26°56' W 079°46'24010.4
2016-Apr-30 04:33N 30°56' W 079°47'1313.5
2016-Apr-30 03:33N 31°07' W 079°57'1414.0
2016-Apr-30 02:33N 31°18' W 080°06'1212.4
2016-Apr-30 01:33N 31°28' W 080°14'1212.2
2016-Apr-30 00:33N 31°38' W 080°22'1312.6
2016-Apr-29 23:33N 31°48' W 080°32'10 9.8
2016-Apr-29 22:33N 31°55' W 080°39'1211.6
2016-Apr-29 21:34N 32°02' W 080°50'1110.7
2016-Apr-29 20:33N 32°05' W 081°03'5 5.1
2016-Apr-29 19:33N 32°07' W 081°08'0 0.0
2016-Apr-29 18:31N 32°07' W 081°08'0 0.0
2016-Apr-29 17:31N 32°07' W 081°08'0 0.0
2016-Apr-29 16:31N 32°07' W 081°08'0 0.0
2016-Apr-29 15:28N 32°07' W 081°08'0 0.0
2016-Apr-29 14:31N 32°07' W 081°08'0 0.0
2016-Apr-29 13:31N 32°07' W 081°08'0 0.0
2016-Apr-29 12:31N 32°07' W 081°08'0 0.0
2016-Apr-29 11:31N 32°07' W 081°08'0 0.0
2016-Apr-29 10:31N 32°07' W 081°08'0 0.0
2016-Apr-29 09:28N 32°07' W 081°08'2 2.0
2016-Apr-29 08:33N 32°06' W 081°06'7 6.9
2016-Apr-29 07:33N 32°04' W 080°58'1111.5
2016-Apr-29 06:33N 31°59' W 080°46'9 9.5
2016-Apr-29 05:33N 31°58' W 080°35'9 9.2
2016-Apr-29 04:34N 32°01' W 080°25'1510.1
2016-Apr-29 03:06N 32°03' W 080°08'24911.5
2016-Apr-28 05:30N 34°19' W 075°58'1314.1
2016-Apr-28 04:33N 34°27' W 075°45'2612.6
2016-Apr-28 02:30N 34°44' W 075°21'1010.8
2016-Apr-28 01:33N 34°50' W 075°12'1111.1
2016-Apr-28 00:33N 34°57' W 075°01'1111.0
2016-Apr-27 23:32N 35°08' W 074°56'24 9.7
2016-Apr-27 21:03N 35°31' W 074°50'23413.3
2016-Apr-27 03:28N 39°22' W 073°56'1314.2
2016-Apr-27 02:33N 39°34' W 073°54'1414.0
2016-Apr-27 01:33N 39°48' W 073°53'3612.0
2016-Apr-26 22:32N 40°25' W 073°49'8 8.4
2016-Apr-26 21:33N 40°30' W 073°57'1111.4
2016-Apr-26 20:33N 40°39' W 074°07'4 3.6
2016-Apr-26 19:33N 40°39' W 074°11'0 0.0
2016-Apr-26 18:33N 40°39' W 074°11'0 0.0
2016-Apr-26 17:33N 40°39' W 074°11'0 0.0
2016-Apr-26 16:33N 40°39' W 074°11'0 0.0
2016-Apr-26 15:33N 40°39' W 074°11'0 0.0
2016-Apr-26 14:34N 40°39' W 074°11'0 0.0
2016-Apr-26 13:33N 40°39' W 074°11'0 0.0
2016-Apr-26 12:33N 40°39' W 074°11'0 0.0
2016-Apr-26 11:33N 40°39' W 074°11'3 2.7
2016-Apr-26 10:33N 40°39' W 074°08'8 7.7
2016-Apr-26 09:33N 40°33' W 074°01'1111.3
2016-Apr-26 08:33N 40°27' W 073°49'16 2.3
2016-Apr-26 01:28N 40°12' W 073°39'7 1.7
2016-Apr-25 21:10N 40°06' W 073°36'3 3.4
2016-Apr-25 20:23N 40°06' W 073°39'8 5.8
2016-Apr-25 19:04N 39°59' W 073°44'4 6.9
2016-Apr-25 18:31N 39°56' W 073°44'6 6.7
2016-Apr-25 17:32N 39°49' W 073°43'6 6.1
2016-Apr-25 16:33N 39°43' W 073°42'8 6.2
2016-Apr-25 15:18N 39°36' W 073°44'5 6.4
2016-Apr-25 14:33N 39°31' W 073°47'7 6.4
2016-Apr-25 13:33N 39°25' W 073°51'6 6.4
2016-Apr-25 12:33N 39°20' W 073°54'6 6.3
2016-Apr-25 11:34N 39°14' W 073°58'6 6.1
2016-Apr-25 10:33N 39°09' W 074°02'6 6.1
2016-Apr-25 09:33N 39°05' W 074°07'6 6.2
2016-Apr-25 08:33N 39°00' W 074°13'6 6.2
2016-Apr-25 07:33N 38°56' W 074°19'6 6.4
2016-Apr-25 06:33N 38°51' W 074°24'7 6.6
2016-Apr-25 05:33N 38°47' W 074°30'6 6.1
2016-Apr-25 04:33N 38°45' W 074°38'6 6.3
2016-Apr-25 03:33N 38°45' W 074°46'11 5.5
2016-Apr-25 01:30N 38°46' W 075°00'4 4.2
2016-Apr-25 00:33N 38°49' W 075°04'1211.7
2016-Apr-24 23:34N 39°00' W 075°08'1514.7
2016-Apr-24 22:33N 39°13' W 075°18'1515.3
2016-Apr-24 21:33N 39°25' W 075°31'1413.9
2016-Apr-24 20:34N 39°38' W 075°34'1313.0
2016-Apr-24 19:33N 39°49' W 075°24'1110.6
2016-Apr-24 18:33N 39°53' W 075°11'3 2.8
2016-Apr-24 17:33N 39°54' W 075°08'0 0.0
2016-Apr-24 16:31N 39°54' W 075°08'0 0.0
2016-Apr-24 15:33N 39°54' W 075°08'0 0.0
2016-Apr-24 14:33N 39°54' W 075°08'0 0.0
2016-Apr-24 13:33N 39°54' W 075°08'0 0.0
2016-Apr-24 12:33N 39°54' W 075°08'0 0.0
2016-Apr-24 11:33N 39°54' W 075°08'0 0.0
2016-Apr-24 10:31N 39°54' W 075°08'6 6.2
2016-Apr-24 09:33N 39°51' W 075°15'1110.8
2016-Apr-24 08:33N 39°47' W 075°28'1312.8
2016-Apr-24 07:33N 39°34' W 075°33'1414.3
2016-Apr-24 06:33N 39°21' W 075°26'1615.9
2016-Apr-24 05:33N 39°08' W 075°14'  
2016-Apr-21 11:11N 27°03' W 079°44'914.2
2016-Apr-21 10:33N 26°55' W 079°46'  
Track history (hours):
 
Tides and Currents Weather Stations Pressure Air Temp Water Temp Dewpoint Dewpoint Depression Visibility Wind Speed Wind Dir Waves Ship Positions

Maersk Weymouth

Last reported at 2016-May-01 09:33 UTC. Time now 2016-May-01 09:51 UTC.
Position N 26°14' W 079°55'.

Length 172 m; draft 7.5 m.

Type: Cargo ship. MMSI: 477622100.

Date/timePositionNaut miles runAvg speedWind from/ knotsBaromVisibWave heightAir tempDewpointWater temp
2016-May-01 09:33N 26°14' W 079°55'7 7.3
2016-May-01 08:33N 26°21' W 079°52'7 7.1
2016-May-01 07:33N 26°28' W 079°51'7 7.1
2016-May-01 06:33N 26°35' W 079°50'7 7.1
2016-May-01 05:33N 26°42' W 079°48'7 6.7
2016-May-01 04:33N 26°49' W 079°47'7 7.4
2016-May-01 03:33N 26°56' W 079°46'24010.4
2016-Apr-30 04:33N 30°56' W 079°47'1313.5
2016-Apr-30 03:33N 31°07' W 079°57'1414.0
2016-Apr-30 02:33N 31°18' W 080°06'1212.4
2016-Apr-30 01:33N 31°28' W 080°14'1212.2
2016-Apr-30 00:33N 31°38' W 080°22'1312.6
2016-Apr-29 23:33N 31°48' W 080°32'10 9.8
2016-Apr-29 22:33N 31°55' W 080°39'1211.6
2016-Apr-29 21:34N 32°02' W 080°50'1110.7
2016-Apr-29 20:33N 32°05' W 081°03'5 5.1
2016-Apr-29 19:33N 32°07' W 081°08'0 0.0
2016-Apr-29 18:31N 32°07' W 081°08'0 0.0
2016-Apr-29 17:31N 32°07' W 081°08'0 0.0
2016-Apr-29 16:31N 32°07' W 081°08'0 0.0
2016-Apr-29 15:28N 32°07' W 081°08'0 0.0
2016-Apr-29 14:31N 32°07' W 081°08'0 0.0
2016-Apr-29 13:31N 32°07' W 081°08'0 0.0
2016-Apr-29 12:31N 32°07' W 081°08'0 0.0
2016-Apr-29 11:31N 32°07' W 081°08'0 0.0
2016-Apr-29 10:31N 32°07' W 081°08'0 0.0
2016-Apr-29 09:28N 32°07' W 081°08'2 2.0
2016-Apr-29 08:33N 32°06' W 081°06'7 6.9
2016-Apr-29 07:33N 32°04' W 080°58'1111.5
2016-Apr-29 06:33N 31°59' W 080°46'9 9.5
2016-Apr-29 05:33N 31°58' W 080°35'9 9.2
2016-Apr-29 04:34N 32°01' W 080°25'1510.1
2016-Apr-29 03:06N 32°03' W 080°08'24911.5
2016-Apr-28 05:30N 34°19' W 075°58'1314.1
2016-Apr-28 04:33N 34°27' W 075°45'2612.6
2016-Apr-28 02:30N 34°44' W 075°21'1010.8
2016-Apr-28 01:33N 34°50' W 075°12'1111.1
2016-Apr-28 00:33N 34°57' W 075°01'1111.0
2016-Apr-27 23:32N 35°08' W 074°56'24 9.7
2016-Apr-27 21:03N 35°31' W 074°50'23413.3
2016-Apr-27 03:28N 39°22' W 073°56'1314.2
2016-Apr-27 02:33N 39°34' W 073°54'1414.0
2016-Apr-27 01:33N 39°48' W 073°53'3612.0
2016-Apr-26 22:32N 40°25' W 073°49'8 8.4
2016-Apr-26 21:33N 40°30' W 073°57'1111.4
2016-Apr-26 20:33N 40°39' W 074°07'4 3.6
2016-Apr-26 19:33N 40°39' W 074°11'0 0.0
2016-Apr-26 18:33N 40°39' W 074°11'0 0.0
2016-Apr-26 17:33N 40°39' W 074°11'0 0.0
2016-Apr-26 16:33N 40°39' W 074°11'0 0.0
2016-Apr-26 15:33N 40°39' W 074°11'0 0.0
2016-Apr-26 14:34N 40°39' W 074°11'0 0.0
2016-Apr-26 13:33N 40°39' W 074°11'0 0.0
2016-Apr-26 12:33N 40°39' W 074°11'0 0.0
2016-Apr-26 11:33N 40°39' W 074°11'3 2.7
2016-Apr-26 10:33N 40°39' W 074°08'8 7.7
2016-Apr-26 09:33N 40°33' W 074°01'1111.3
2016-Apr-26 08:33N 40°27' W 073°49'16 2.3
2016-Apr-26 01:28N 40°12' W 073°39'7 1.7
2016-Apr-25 21:10N 40°06' W 073°36'3 3.4
2016-Apr-25 20:23N 40°06' W 073°39'8 5.8
2016-Apr-25 19:04N 39°59' W 073°44'4 6.9
2016-Apr-25 18:31N 39°56' W 073°44'6 6.7
2016-Apr-25 17:32N 39°49' W 073°43'6 6.1
2016-Apr-25 16:33N 39°43' W 073°42'8 6.2
2016-Apr-25 15:18N 39°36' W 073°44'5 6.4
2016-Apr-25 14:33N 39°31' W 073°47'7 6.4
2016-Apr-25 13:33N 39°25' W 073°51'6 6.4
2016-Apr-25 12:33N 39°20' W 073°54'6 6.3
2016-Apr-25 11:34N 39°14' W 073°58'6 6.1
2016-Apr-25 10:33N 39°09' W 074°02'6 6.1
2016-Apr-25 09:33N 39°05' W 074°07'6 6.2
2016-Apr-25 08:33N 39°00' W 074°13'6 6.2
2016-Apr-25 07:33N 38°56' W 074°19'6 6.4
2016-Apr-25 06:33N 38°51' W 074°24'7 6.6
2016-Apr-25 05:33N 38°47' W 074°30'6 6.1
2016-Apr-25 04:33N 38°45' W 074°38'6 6.3
2016-Apr-25 03:33N 38°45' W 074°46'11 5.5
2016-Apr-25 01:30N 38°46' W 075°00'4 4.2
2016-Apr-25 00:33N 38°49' W 075°04'1211.7
2016-Apr-24 23:34N 39°00' W 075°08'1514.7
2016-Apr-24 22:33N 39°13' W 075°18'1515.3
2016-Apr-24 21:33N 39°25' W 075°31'1413.9
2016-Apr-24 20:34N 39°38' W 075°34'1313.0
2016-Apr-24 19:33N 39°49' W 075°24'1110.6
2016-Apr-24 18:33N 39°53' W 075°11'3 2.8
2016-Apr-24 17:33N 39°54' W 075°08'0 0.0
2016-Apr-24 16:31N 39°54' W 075°08'0 0.0
2016-Apr-24 15:33N 39°54' W 075°08'0 0.0
2016-Apr-24 14:33N 39°54' W 075°08'0 0.0
2016-Apr-24 13:33N 39°54' W 075°08'0 0.0
2016-Apr-24 12:33N 39°54' W 075°08'0 0.0
2016-Apr-24 11:33N 39°54' W 075°08'0 0.0
2016-Apr-24 10:31N 39°54' W 075°08'6 6.2
2016-Apr-24 09:33N 39°51' W 075°15'1110.8
2016-Apr-24 08:33N 39°47' W 075°28'1312.8
2016-Apr-24 07:33N 39°34' W 075°33'1414.3
2016-Apr-24 06:33N 39°21' W 075°26'1615.9
2016-Apr-24 05:33N 39°08' W 075°14'  
2016-Apr-21 11:11N 27°03' W 079°44'914.2
2016-Apr-21 10:33N 26°55' W 079°46'  

Dump ship's entire track history